createdAt,value
2022-09-25T00:00:38.982Z,97202.31
2022-09-25T00:01:40.659Z,97200.19
2022-09-25T00:02:42.394Z,97203.88
2022-09-25T00:03:44.107Z,97207.16
2022-09-25T00:04:45.667Z,97203.81
2022-09-25T00:05:47.717Z,97206.94
2022-09-25T00:06:49.339Z,97208.84
2022-09-25T00:07:51.777Z,97202.34
2022-09-25T00:08:54.249Z,97193.47
2022-09-25T00:09:55.779Z,97188.09
2022-09-25T00:10:57.374Z,97188.56
2022-09-25T00:11:58.988Z,97189.38
2022-09-25T00:13:00.933Z,97183.97
2022-09-25T00:14:02.509Z,97187.88
2022-09-25T00:15:05.622Z,97185.19
2022-09-25T00:16:10.868Z,97187.47
2022-09-25T00:17:12.487Z,97179.38
2022-09-25T00:18:14.587Z,97173.66
2022-09-25T00:19:40.914Z,97177.03
2022-09-25T00:20:43.357Z,97171.53
2022-09-25T00:21:45.318Z,97178.34
2022-09-25T00:22:47.571Z,97169.38
2022-09-25T00:23:49.116Z,97175.53
2022-09-25T00:24:50.746Z,97178.00
2022-09-25T00:25:56.216Z,97178.00
2022-09-25T00:27:00.038Z,97181.59
2022-09-25T00:28:01.838Z,97182.47
2022-09-25T00:29:04.913Z,97176.78
2022-09-25T00:30:07.518Z,97180.69
2022-09-25T00:31:10.834Z,97182.25
2022-09-25T00:32:12.483Z,97181.25
2022-09-25T00:33:14.022Z,97185.06
2022-09-25T00:34:15.574Z,97183.63
2022-09-25T00:35:17.189Z,97184.41
2022-09-25T00:36:19.292Z,97177.13
2022-09-25T00:37:21.111Z,97172.63
2022-09-25T00:38:22.644Z,97176.16
2022-09-25T00:39:24.423Z,97177.13
2022-09-25T00:40:26.088Z,97171.81
2022-09-25T00:41:32.042Z,97172.72
2022-09-25T00:42:33.735Z,97171.47
2022-09-25T00:43:41.275Z,97177.28
2022-09-25T00:44:56.847Z,97177.66
2022-09-25T00:45:59.080Z,97175.06
2022-09-25T00:47:01.034Z,97169.19
2022-09-25T00:48:07.318Z,97172.31
2022-09-25T00:49:12.458Z,97173.00
2022-09-25T00:50:22.871Z,97170.63
2022-09-25T00:51:30.437Z,97169.84
2022-09-25T00:52:32.062Z,97179.94
2022-09-25T00:53:38.578Z,97177.84
2022-09-25T00:54:49.449Z,97180.19
2022-09-25T00:55:51.983Z,97180.31
2022-09-25T00:56:56.697Z,97179.53
2022-09-25T00:58:00.545Z,97176.69
2022-09-25T00:59:02.503Z,97178.28
2022-09-25T01:00:08.514Z,97175.94
2022-09-25T01:01:10.395Z,97179.28
2022-09-25T01:02:20.537Z,97175.00
2022-09-25T01:03:22.886Z,97169.19
2022-09-25T01:04:26.413Z,97172.22
2022-09-25T01:05:32.331Z,97171.41
2022-09-25T01:06:35.793Z,97170.63
2022-09-25T01:07:40.744Z,97170.53
2022-09-25T01:08:45.265Z,97168.00
2022-09-25T01:09:46.889Z,97162.63
2022-09-25T01:10:48.483Z,97170.03
2022-09-25T01:11:49.989Z,97165.16
2022-09-25T01:12:52.944Z,97161.34
2022-09-25T01:13:56.869Z,97159.88
2022-09-25T01:14:58.405Z,97161.47
2022-09-25T01:15:59.880Z,97149.94
2022-09-25T01:17:24.741Z,97156.88
2022-09-25T01:18:35.317Z,97159.25
2022-09-25T01:19:39.848Z,97159.34
2022-09-25T01:21:03.928Z,97160.94
2022-09-25T01:22:18.953Z,97152.94
2022-09-25T01:23:55.761Z,97161.22
2022-09-25T01:25:24.234Z,97154.31
2022-09-25T01:26:50.097Z,97153.91
2022-09-25T01:28:06.634Z,97155.88
2022-09-25T01:29:37.473Z,97155.16
2022-09-25T01:30:44.655Z,97153.13
2022-09-25T01:32:18.494Z,97155.63
2022-09-25T01:33:27.420Z,97161.22
2022-09-25T01:34:40.681Z,97155.03
2022-09-25T01:35:48.199Z,97161.09
2022-09-25T01:37:00.043Z,97164.69
2022-09-25T01:38:34.952Z,97162.81
2022-09-25T01:39:41.331Z,97167.97
2022-09-25T01:40:56.619Z,97167.00
2022-09-25T01:42:14.496Z,97168.56
2022-09-25T01:43:20.851Z,97170.81
2022-09-25T01:44:36.351Z,97174.44
2022-09-25T01:45:47.566Z,97167.94
2022-09-25T01:46:52.742Z,97166.97
2022-09-25T01:47:57.407Z,97172.88
2022-09-25T01:49:08.624Z,97166.44
2022-09-25T01:50:19.185Z,97168.69
2022-09-25T01:51:37.942Z,97167.91
2022-09-25T01:52:47.895Z,97169.78
2022-09-25T01:53:53.925Z,97171.84
2022-09-25T01:55:02.515Z,97175.53
2022-09-25T01:56:13.539Z,97175.88
2022-09-25T01:57:31.865Z,97174.94
2022-09-25T01:58:42.052Z,97177.81
2022-09-25T02:00:09.942Z,97177.19
2022-09-25T02:01:18.505Z,97169.63
2022-09-25T02:02:26.882Z,97168.69
2022-09-25T02:03:36.780Z,97180.97
2022-09-25T02:04:42.985Z,97177.66
2022-09-25T02:05:49.549Z,97171.50
2022-09-25T02:06:53.872Z,97177.19
2022-09-25T02:08:02.170Z,97172.88
2022-09-25T02:09:11.231Z,97180.09
2022-09-25T02:10:16.881Z,97173.78
2022-09-25T02:11:18.402Z,97171.72
2022-09-25T02:12:34.306Z,97169.69
2022-09-25T02:13:43.301Z,97173.03
2022-09-25T02:14:48.635Z,97174.94
2022-09-25T02:16:26.198Z,97172.84
2022-09-25T02:18:15.458Z,97173.31
2022-09-25T02:19:36.579Z,97172.03
2022-09-25T02:20:42.470Z,97176.28
2022-09-25T02:22:04.840Z,97177.38
2022-09-25T02:23:25.270Z,97184.63
2022-09-25T02:24:37.258Z,97185.25
2022-09-25T02:25:44.691Z,97169.81
2022-09-25T02:26:46.851Z,97178.31
2022-09-25T02:27:48.379Z,97167.38
2022-09-25T02:28:51.608Z,97167.88
2022-09-25T02:29:53.492Z,97168.78
2022-09-25T02:30:59.239Z,97180.56
2022-09-25T02:32:10.707Z,97180.72
2022-09-25T02:33:12.306Z,97174.38
2022-09-25T02:34:15.445Z,97177.66
2022-09-25T02:35:17.320Z,97174.84
2022-09-25T02:36:21.854Z,97180.06
2022-09-25T02:37:24.106Z,97171.56
2022-09-25T02:38:25.630Z,97175.66
2022-09-25T02:39:29.963Z,97174.09
2022-09-25T02:40:48.733Z,97161.47
2022-09-25T02:42:05.187Z,97172.50
2022-09-25T02:43:30.863Z,97166.09
2022-09-25T02:44:47.745Z,97167.69
2022-09-25T02:46:19.267Z,97167.03
2022-09-25T02:47:34.733Z,97169.81
2022-09-25T02:49:02.198Z,97165.25
2022-09-25T02:50:15.921Z,97161.97
2022-09-25T02:51:24.746Z,97164.28
2022-09-25T02:52:38.809Z,97168.19
2022-09-25T02:53:49.782Z,97173.09
2022-09-25T02:55:04.209Z,97170.31
2022-09-25T02:56:39.177Z,97169.63
2022-09-25T02:57:58.976Z,97171.50
2022-09-25T02:59:08.929Z,97168.47
2022-09-25T03:00:11.537Z,97170.00
2022-09-25T03:01:16.632Z,97171.91
2022-09-25T03:02:19.892Z,97173.97
2022-09-25T03:03:23.937Z,97174.75
2022-09-25T03:04:27.681Z,97177.09
2022-09-25T03:05:30.810Z,97173.03
2022-09-25T03:06:32.665Z,97171.16
2022-09-25T03:07:54.391Z,97169.59
2022-09-25T03:08:58.857Z,97175.91
2022-09-25T03:10:00.654Z,97177.19
2022-09-25T03:11:03.925Z,97168.16
2022-09-25T03:12:05.558Z,97168.97
2022-09-25T03:13:17.491Z,97174.94
2022-09-25T03:14:19.125Z,97168.59
2022-09-25T03:15:23.838Z,97183.41
2022-09-25T03:16:40.790Z,97176.28
2022-09-25T03:17:43.606Z,97175.19
2022-09-25T03:18:46.336Z,97166.94
2022-09-25T03:19:47.874Z,97175.44
2022-09-25T03:20:49.608Z,97174.34
2022-09-25T03:21:51.170Z,97169.44
2022-09-25T03:22:52.697Z,97171.00
2022-09-25T03:23:56.966Z,97169.88
2022-09-25T03:24:58.487Z,97168.50
2022-09-25T03:26:00.089Z,97168.03
2022-09-25T03:27:01.626Z,97160.81
2022-09-25T03:28:03.645Z,97159.78
2022-09-25T03:29:06.161Z,97164.72
2022-09-25T03:30:11.157Z,97170.94
2022-09-25T03:31:12.798Z,97160.72
2022-09-25T03:32:15.085Z,97160.72
2022-09-25T03:33:17.672Z,97159.94
2022-09-25T03:34:20.101Z,97164.66
2022-09-25T03:35:21.681Z,97159.31
2022-09-25T03:36:25.723Z,97157.88
2022-09-25T03:37:27.294Z,97162.75
2022-09-25T03:38:28.916Z,97160.38
2022-09-25T03:39:30.460Z,97160.63
2022-09-25T03:40:32.730Z,97167.41
2022-09-25T03:41:35.406Z,97166.00
2022-09-25T03:42:37.031Z,97170.84
2022-09-25T03:43:40.846Z,97169.75
2022-09-25T03:44:43.028Z,97168.66
2022-09-25T03:45:44.640Z,97168.19
2022-09-25T03:46:46.282Z,97161.09
2022-09-25T03:47:47.824Z,97171.63
2022-09-25T03:48:49.772Z,97175.25
2022-09-25T03:49:51.317Z,97170.66
2022-09-25T03:50:53.332Z,97175.72
2022-09-25T03:51:54.845Z,97177.44
2022-09-25T03:52:57.154Z,97168.97
2022-09-25T03:53:59.105Z,97178.09
2022-09-25T03:55:00.698Z,97178.72
2022-09-25T03:56:08.137Z,97180.31
2022-09-25T03:57:12.391Z,97178.09
2022-09-25T03:58:14.864Z,97187.38
2022-09-25T03:59:16.969Z,97178.41
2022-09-25T04:00:18.509Z,97178.88
2022-09-25T04:01:21.942Z,97176.69
2022-09-25T04:02:23.677Z,97177.84
2022-09-25T04:03:29.151Z,97189.53
2022-09-25T04:04:30.674Z,97183.88
2022-09-25T04:05:34.842Z,97189.72
2022-09-25T04:06:36.420Z,97188.63
2022-09-25T04:07:38.305Z,97192.72
2022-09-25T04:08:39.847Z,97195.56
2022-09-25T04:09:41.386Z,97188.63
2022-09-25T04:10:42.962Z,97186.41
2022-09-25T04:11:45.140Z,97196.81
2022-09-25T04:12:46.678Z,97198.38
2022-09-25T04:13:48.289Z,97198.06
2022-09-25T04:14:49.785Z,97195.88
2022-09-25T04:15:51.753Z,97199.78
2022-09-25T04:16:53.434Z,97195.22
2022-09-25T04:17:58.057Z,97195.06
2022-09-25T04:19:01.670Z,97190.38
2022-09-25T04:20:03.578Z,97194.47
2022-09-25T04:21:08.507Z,97191.94
2022-09-25T04:22:10.133Z,97190.97
2022-09-25T04:23:11.651Z,97201.06
2022-09-25T04:24:31.710Z,97200.91
2022-09-25T04:25:33.576Z,97193.50
2022-09-25T04:26:35.551Z,97205.16
2022-09-25T04:27:37.179Z,97205.19
2022-09-25T04:28:38.736Z,97214.31
2022-09-25T04:29:41.022Z,97214.78
2022-09-25T04:30:42.542Z,97218.72
2022-09-25T04:31:44.157Z,97217.94
2022-09-25T04:33:04.371Z,97215.75
2022-09-25T04:34:05.876Z,97213.69
2022-09-25T04:35:08.081Z,97208.78
2022-09-25T04:36:09.650Z,97205.50
2022-09-25T04:37:12.099Z,97217.94
2022-09-25T04:38:13.781Z,97214.13
2022-09-25T04:39:20.081Z,97209.75
2022-09-25T04:40:21.719Z,97212.56
2022-09-25T04:41:23.279Z,97212.88
2022-09-25T04:42:25.807Z,97219.19
2022-09-25T04:43:34.368Z,97220.75
2022-09-25T04:44:35.975Z,97218.56
2022-09-25T04:45:37.775Z,97221.84
2022-09-25T04:46:39.320Z,97220.41
2022-09-25T04:47:40.946Z,97220.41
2022-09-25T04:48:45.929Z,97210.84
2022-09-25T04:49:47.701Z,97221.72
2022-09-25T04:50:51.121Z,97216.97
2022-09-25T04:51:52.705Z,97220.13
2022-09-25T04:52:56.389Z,97218.84
2022-09-25T04:53:58.033Z,97221.53
2022-09-25T04:55:00.748Z,97224.06
2022-09-25T04:56:05.459Z,97217.28
2022-09-25T04:57:07.027Z,97221.72
2022-09-25T04:58:11.137Z,97218.56
2022-09-25T04:59:12.671Z,97213.06
2022-09-25T05:00:18.691Z,97213.19
2022-09-25T05:01:20.916Z,97210.34
2022-09-25T05:02:28.061Z,97216.81
2022-09-25T05:03:30.143Z,97211.78
2022-09-25T05:04:32.102Z,97217.44
2022-09-25T05:05:33.680Z,97209.41
2022-09-25T05:06:35.173Z,97214.16
2022-09-25T05:07:36.758Z,97211.31
2022-09-25T05:08:38.273Z,97214.91
2022-09-25T05:09:40.210Z,97209.41
2022-09-25T05:10:44.268Z,97209.84
2022-09-25T05:11:48.964Z,97208.47
2022-09-25T05:12:56.353Z,97210.34
2022-09-25T05:13:58.169Z,97214.28
2022-09-25T05:14:59.814Z,97214.75
2022-09-25T05:16:01.673Z,97215.38
2022-09-25T05:17:03.417Z,97210.69
2022-09-25T05:18:18.158Z,97217.75
2022-09-25T05:19:19.739Z,97218.56
2022-09-25T05:20:21.310Z,97219.81
2022-09-25T05:21:22.914Z,97218.72
2022-09-25T05:22:24.432Z,97214.47
2022-09-25T05:23:26.052Z,97209.88
2022-09-25T05:24:27.718Z,97209.09
2022-09-25T05:25:29.542Z,97211.72
2022-09-25T05:26:34.378Z,97197.22
2022-09-25T05:27:35.964Z,97204.06
2022-09-25T05:28:37.502Z,97200.06
2022-09-25T05:29:40.201Z,97191.16
2022-09-25T05:30:43.605Z,97193.47
2022-09-25T05:31:48.729Z,97195.41
2022-09-25T05:32:51.486Z,97193.03
2022-09-25T05:33:54.023Z,97192.91
2022-09-25T05:34:55.541Z,97192.81
2022-09-25T05:36:01.854Z,97191.75
2022-09-25T05:37:03.741Z,97191.34
2022-09-25T05:38:06.751Z,97192.53
2022-09-25T05:39:14.469Z,97190.31
2022-09-25T05:40:18.596Z,97187.31
2022-09-25T05:41:20.616Z,97194.38
2022-09-25T05:42:23.104Z,97189.50
2022-09-25T05:43:25.461Z,97186.53
2022-09-25T05:44:28.477Z,97195.03
2022-09-25T05:45:30.162Z,97194.50
2022-09-25T05:46:31.866Z,97196.84
2022-09-25T05:47:33.441Z,97197.28
2022-09-25T05:48:35.369Z,97186.56
2022-09-25T05:49:37.059Z,97189.13
2022-09-25T05:50:38.640Z,97196.09
2022-09-25T05:51:40.181Z,97200.56
2022-09-25T05:52:41.701Z,97195.63
2022-09-25T05:53:43.280Z,97196.75
2022-09-25T05:54:44.842Z,97195.53
2022-09-25T05:55:53.774Z,97193.50
2022-09-25T05:56:55.309Z,97205.16
2022-09-25T05:58:03.870Z,97199.13
2022-09-25T05:59:05.477Z,97199.81
2022-09-25T06:00:13.617Z,97197.97
2022-09-25T06:01:15.221Z,97195.22
2022-09-25T06:02:17.127Z,97197.44
2022-09-25T06:03:20.521Z,97193.38
2022-09-25T06:04:22.137Z,97191.31
2022-09-25T06:05:23.656Z,97185.94
2022-09-25T06:06:27.455Z,97189.19
2022-09-25T06:07:29.317Z,97189.03
2022-09-25T06:08:31.439Z,97188.31
2022-09-25T06:09:33.069Z,97193.56
2022-09-25T06:10:35.487Z,97189.16
2022-09-25T06:11:36.981Z,97191.13
2022-09-25T06:12:38.524Z,97185.91
2022-09-25T06:13:40.942Z,97193.25
2022-09-25T06:14:42.575Z,97189.34
2022-09-25T06:15:44.131Z,97188.41
2022-09-25T06:16:49.916Z,97197.72
2022-09-25T06:17:51.734Z,97192.72
2022-09-25T06:18:53.289Z,97186.94
2022-09-25T06:19:54.825Z,97195.13
2022-09-25T06:21:04.983Z,97196.09
2022-09-25T06:22:06.582Z,97193.09
2022-09-25T06:23:08.155Z,97188.22
2022-09-25T06:24:10.815Z,97191.56
2022-09-25T06:25:12.357Z,97191.88
2022-09-25T06:26:14.380Z,97185.50
2022-09-25T06:27:15.903Z,97189.19
2022-09-25T06:28:17.569Z,97190.25
2022-09-25T06:29:19.156Z,97187.13
2022-09-25T06:30:22.143Z,97193.13
2022-09-25T06:31:23.745Z,97190.59
2022-09-25T06:32:25.315Z,97187.44
2022-09-25T06:33:26.859Z,97184.50
2022-09-25T06:34:28.548Z,97187.41
2022-09-25T06:35:30.309Z,97179.53
2022-09-25T06:36:32.309Z,97176.84
2022-09-25T06:37:33.877Z,97180.56
2022-09-25T06:38:35.564Z,97173.47
2022-09-25T06:39:37.083Z,97172.19
2022-09-25T06:40:41.456Z,97177.22
2022-09-25T06:41:44.057Z,97185.22
2022-09-25T06:42:46.252Z,97181.63
2022-09-25T06:43:52.090Z,97178.34
2022-09-25T06:44:53.640Z,97179.94
2022-09-25T06:45:55.308Z,97176.81
2022-09-25T06:46:56.874Z,97183.31
2022-09-25T06:48:06.559Z,97180.09
2022-09-25T06:49:08.154Z,97178.75
2022-09-25T06:50:11.894Z,97176.22
2022-09-25T06:51:13.475Z,97178.97
2022-09-25T06:52:15.098Z,97174.09
2022-09-25T06:53:18.203Z,97174.59
2022-09-25T06:54:19.736Z,97180.84
2022-09-25T06:55:21.274Z,97175.31
2022-09-25T06:56:23.034Z,97177.63
2022-09-25T06:57:24.549Z,97168.94
2022-09-25T06:58:30.340Z,97171.06
2022-09-25T06:59:32.533Z,97166.19
2022-09-25T07:00:34.684Z,97167.50
2022-09-25T07:01:36.232Z,97166.50
2022-09-25T07:02:56.555Z,97163.41
2022-09-25T07:03:58.124Z,97163.22
2022-09-25T07:05:00.606Z,97162.56
2022-09-25T07:06:04.279Z,97156.84
2022-09-25T07:07:05.868Z,97153.91
2022-09-25T07:08:07.504Z,97151.34
2022-09-25T07:09:09.104Z,97155.28
2022-09-25T07:10:11.314Z,97153.34
2022-09-25T07:11:15.229Z,97152.59
2022-09-25T07:12:18.515Z,97157.91
2022-09-25T07:13:24.883Z,97161.94
2022-09-25T07:14:26.378Z,97163.09
2022-09-25T07:15:27.943Z,97167.50
2022-09-25T07:16:30.638Z,97165.13
2022-09-25T07:17:32.306Z,97160.84
2022-09-25T07:18:34.330Z,97170.44
2022-09-25T07:19:35.861Z,97167.47
2022-09-25T07:20:37.827Z,97168.50
2022-09-25T07:21:39.368Z,97165.56
2022-09-25T07:22:42.648Z,97165.38
2022-09-25T07:23:44.527Z,97167.50
2022-09-25T07:24:46.161Z,97167.59
2022-09-25T07:25:48.406Z,97166.22
2022-09-25T07:26:49.976Z,97170.97
2022-09-25T07:27:51.621Z,97164.06
2022-09-25T07:29:01.262Z,97165.66
2022-09-25T07:30:03.235Z,97166.03
2022-09-25T07:31:19.521Z,97166.81
2022-09-25T07:32:21.123Z,97167.97
2022-09-25T07:33:25.110Z,97164.06
2022-09-25T07:34:26.895Z,97161.66
2022-09-25T07:35:28.500Z,97172.78
2022-09-25T07:36:30.124Z,97175.19
2022-09-25T07:37:31.703Z,97172.06
2022-09-25T07:38:34.461Z,97167.25
2022-09-25T07:39:36.107Z,97179.81
2022-09-25T07:40:37.702Z,97176.81
2022-09-25T07:41:39.324Z,97169.94
2022-09-25T07:42:41.970Z,97159.56
2022-09-25T07:43:43.713Z,97167.00
2022-09-25T07:44:48.362Z,97163.75
2022-09-25T07:45:53.673Z,97166.81
2022-09-25T07:46:55.333Z,97165.41
2022-09-25T07:47:58.173Z,97161.22
2022-09-25T07:49:02.884Z,97165.41
2022-09-25T07:50:04.747Z,97160.56
2022-09-25T07:51:08.971Z,97158.91
2022-09-25T07:52:10.519Z,97150.34
2022-09-25T07:53:12.223Z,97149.28
2022-09-25T07:54:13.868Z,97149.94
2022-09-25T07:55:15.719Z,97141.34
2022-09-25T07:56:17.729Z,97141.03
2022-09-25T07:57:20.656Z,97140.13
2022-09-25T07:58:23.824Z,97136.06
2022-09-25T07:59:25.459Z,97135.66
2022-09-25T08:00:27.025Z,97132.31
2022-09-25T08:01:28.717Z,97131.22
2022-09-25T08:02:35.194Z,97116.63
2022-09-25T08:03:36.799Z,97115.03
2022-09-25T08:04:38.394Z,97110.47
2022-09-25T08:05:39.907Z,97112.56
2022-09-25T08:06:41.522Z,97113.19
2022-09-25T08:07:43.057Z,97112.28
2022-09-25T08:08:44.747Z,97113.06
2022-09-25T08:09:46.282Z,97118.63
2022-09-25T08:10:48.354Z,97116.47
2022-09-25T08:11:50.102Z,97120.06
2022-09-25T08:12:51.766Z,97117.41
2022-09-25T08:13:53.404Z,97112.75
2022-09-25T08:14:54.996Z,97110.84
2022-09-25T08:15:56.689Z,97112.06
2022-09-25T08:16:58.342Z,97106.34
2022-09-25T08:17:59.861Z,97098.69
2022-09-25T08:19:01.448Z,97101.84
2022-09-25T08:20:03.744Z,97092.13
2022-09-25T08:21:05.541Z,97093.69
2022-09-25T08:22:07.102Z,97087.50
2022-09-25T08:23:08.686Z,97087.78
2022-09-25T08:24:10.892Z,97087.34
2022-09-25T08:25:13.065Z,97086.59
2022-09-25T08:26:17.806Z,97090.56
2022-09-25T08:27:19.525Z,97081.97
2022-09-25T08:28:21.138Z,97083.09
2022-09-25T08:29:23.108Z,97078.03
2022-09-25T08:30:24.998Z,97082.69
2022-09-25T08:31:27.004Z,97064.09
2022-09-25T08:32:28.785Z,97063.41
2022-09-25T08:33:31.447Z,97062.63
2022-09-25T08:34:41.641Z,97067.66
2022-09-25T08:35:43.687Z,97063.78
2022-09-25T08:36:47.801Z,97063.44
2022-09-25T08:37:49.379Z,97066.56
2022-09-25T08:38:56.164Z,97071.22
2022-09-25T08:39:59.362Z,97059.56
2022-09-25T08:41:11.562Z,97067.34
2022-09-25T08:42:27.623Z,97066.97
2022-09-25T08:43:32.051Z,97058.44
2022-09-25T08:44:52.566Z,97061.94
2022-09-25T08:46:29.571Z,97059.63
2022-09-25T08:47:49.980Z,97066.63
2022-09-25T08:49:02.868Z,97057.69
2022-09-25T08:50:10.360Z,97054.16
2022-09-25T08:51:12.022Z,97051.84
2022-09-25T08:52:18.684Z,97055.72
2022-09-25T08:53:25.202Z,97054.16
2022-09-25T08:54:29.404Z,97064.28
2022-09-25T08:55:53.851Z,97061.94
2022-09-25T08:57:04.413Z,97055.75
2022-09-25T08:58:06.647Z,97055.72
2022-09-25T08:59:24.039Z,97052.59
2022-09-25T09:00:25.593Z,97052.63
2022-09-25T09:01:30.222Z,97056.13
2022-09-25T09:02:40.622Z,97054.94
2022-09-25T09:03:50.198Z,97045.22
2022-09-25T09:04:55.667Z,97048.72
2022-09-25T09:06:02.720Z,97046.38
2022-09-25T09:07:27.818Z,97043.28
2022-09-25T09:08:33.616Z,97042.09
2022-09-25T09:09:40.887Z,97038.25
2022-09-25T09:10:52.121Z,97036.28
2022-09-25T09:12:03.658Z,97035.47
2022-09-25T09:13:37.293Z,97033.13
2022-09-25T09:14:47.144Z,97027.28
2022-09-25T09:16:02.721Z,97026.91
2022-09-25T09:17:13.141Z,97016.81
2022-09-25T09:18:26.936Z,97011.38
2022-09-25T09:19:28.969Z,97014.50
2022-09-25T09:20:43.267Z,97011.78
2022-09-25T09:22:06.173Z,97006.69
2022-09-25T09:23:18.071Z,97012.47
2022-09-25T09:24:41.661Z,97008.97
2022-09-25T09:25:58.342Z,97008.94
2022-09-25T09:27:04.191Z,97003.41
2022-09-25T09:28:50.016Z,97001.00
2022-09-25T09:30:05.662Z,97004.94
2022-09-25T09:31:26.036Z,96997.09
2022-09-25T09:32:56.245Z,97008.03
2022-09-25T09:34:12.345Z,96995.91
2022-09-25T09:35:38.956Z,97001.75
2022-09-25T09:36:52.993Z,97005.59
2022-09-25T09:38:16.053Z,96998.53
2022-09-25T09:39:23.681Z,96999.22
2022-09-25T09:40:31.061Z,96995.19
2022-09-25T09:41:50.280Z,96998.59
2022-09-25T09:43:27.720Z,96995.06
2022-09-25T09:44:54.542Z,96987.94
2022-09-25T09:46:04.261Z,96986.97
2022-09-25T09:47:39.848Z,96990.84
2022-09-25T09:49:16.802Z,96994.06
2022-09-25T09:50:49.902Z,96994.19
2022-09-25T09:52:03.857Z,96987.66
2022-09-25T09:53:19.327Z,96992.88
2022-09-25T09:54:32.053Z,96990.25
2022-09-25T09:55:47.089Z,96991.78
2022-09-25T09:56:51.711Z,96984.31
2022-09-25T09:57:57.465Z,96986.72
2022-09-25T09:59:04.064Z,96993.78
2022-09-25T10:00:13.439Z,96981.66
2022-09-25T10:01:37.017Z,96983.97
2022-09-25T10:02:44.392Z,96981.16
2022-09-25T10:03:49.215Z,96975.63
2022-09-25T10:04:53.944Z,96967.75
2022-09-25T10:05:59.673Z,96967.75
2022-09-25T10:07:16.730Z,96971.28
2022-09-25T10:08:18.335Z,96961.41
2022-09-25T10:09:19.892Z,96959.38
2022-09-25T10:10:28.230Z,96969.03
2022-09-25T10:11:32.273Z,96965.13
2022-09-25T10:12:37.594Z,96967.97
2022-09-25T10:13:45.901Z,96964.06
2022-09-25T10:14:48.391Z,96963.38
2022-09-25T10:16:04.789Z,96955.09
2022-09-25T10:17:11.437Z,96952.09
2022-09-25T10:18:15.268Z,96956.75
2022-09-25T10:19:24.338Z,96954.41
2022-09-25T10:20:31.044Z,96940.34
2022-09-25T10:21:41.052Z,96945.91
2022-09-25T10:22:46.149Z,96947.53
2022-09-25T10:23:52.663Z,96947.56
2022-09-25T10:24:55.584Z,96942.47
2022-09-25T10:25:57.107Z,96937.31
2022-09-25T10:27:21.414Z,96937.31
2022-09-25T10:28:36.901Z,96945.13
2022-09-25T10:29:38.472Z,96944.44
2022-09-25T10:30:46.538Z,96939.84
2022-09-25T10:31:56.284Z,96943.00
2022-09-25T10:33:11.637Z,96935.84
2022-09-25T10:34:13.230Z,96939.66
2022-09-25T10:35:17.946Z,96929.00
2022-09-25T10:36:36.023Z,96929.59
2022-09-25T10:37:37.681Z,96936.13
2022-09-25T10:38:53.493Z,96933.34
2022-09-25T10:40:08.630Z,96929.00
2022-09-25T10:41:20.061Z,96927.72
2022-09-25T10:42:41.618Z,96929.19
2022-09-25T10:44:01.182Z,96928.09
2022-09-25T10:45:22.018Z,96912.41
2022-09-25T10:46:46.525Z,96928.38
2022-09-25T10:48:09.312Z,96927.38
2022-09-25T10:49:43.226Z,96918.88
2022-09-25T10:50:45.314Z,96918.00
2022-09-25T10:52:08.067Z,96924.63
2022-09-25T10:53:30.412Z,96921.06
2022-09-25T10:54:33.645Z,96919.81
2022-09-25T10:55:44.067Z,96910.78
2022-09-25T10:56:45.617Z,96916.53
2022-09-25T10:57:48.170Z,96918.75
2022-09-25T10:58:59.750Z,96917.50
2022-09-25T11:00:03.327Z,96911.31
2022-09-25T11:01:07.351Z,96914.81
2022-09-25T11:02:40.392Z,96917.63
2022-09-25T11:03:49.174Z,96911.13
2022-09-25T11:04:52.835Z,96906.13
2022-09-25T11:06:05.431Z,96909.66
2022-09-25T11:07:17.138Z,96902.50
2022-09-25T11:08:23.791Z,96906.69
2022-09-25T11:09:28.103Z,96909.25
2022-09-25T11:10:45.255Z,96913.94
2022-09-25T11:11:49.454Z,96908.81
2022-09-25T11:12:52.539Z,96909.97
2022-09-25T11:13:57.139Z,96908.28
2022-09-25T11:15:08.907Z,96907.34
2022-09-25T11:16:11.078Z,96904.88
2022-09-25T11:17:32.094Z,96900.91
2022-09-25T11:18:59.062Z,96896.50
2022-09-25T11:20:22.599Z,96903.16
2022-09-25T11:21:30.105Z,96897.19
2022-09-25T11:22:37.921Z,96895.09
2022-09-25T11:23:46.609Z,96896.59
2022-09-25T11:25:01.872Z,96901.03
2022-09-25T11:26:20.521Z,96898.53
2022-09-25T11:27:43.174Z,96895.59
2022-09-25T11:28:54.290Z,96890.91
2022-09-25T11:30:17.117Z,96892.19
2022-09-25T11:31:41.647Z,96895.50
2022-09-25T11:33:13.734Z,96893.38
2022-09-25T11:34:47.248Z,96881.13
2022-09-25T11:36:15.823Z,96886.50
2022-09-25T11:37:23.341Z,96879.38
2022-09-25T11:38:52.605Z,96881.19
2022-09-25T11:40:38.705Z,96887.53
2022-09-25T11:42:00.697Z,96896.22
2022-09-25T11:43:07.911Z,96881.72
2022-09-25T11:44:23.451Z,96881.00
2022-09-25T11:45:36.612Z,96878.44
2022-09-25T11:46:50.412Z,96887.06
2022-09-25T11:48:03.778Z,96882.28
2022-09-25T11:49:12.488Z,96879.59
2022-09-25T11:50:17.088Z,96875.91
2022-09-25T11:51:44.826Z,96861.28
2022-09-25T11:52:55.973Z,96867.53
2022-09-25T11:54:33.901Z,96873.00
2022-09-25T11:55:45.819Z,96880.97
2022-09-25T11:57:12.709Z,96866.69
2022-09-25T11:58:33.358Z,96871.31
2022-09-25T11:59:49.393Z,96866.31
2022-09-25T12:01:18.185Z,96867.09
2022-09-25T12:02:44.782Z,96868.69
2022-09-25T12:04:04.561Z,96863.28
2022-09-25T12:05:21.281Z,96864.84
2022-09-25T12:06:22.807Z,96867.22
2022-09-25T12:07:30.418Z,96864.09
2022-09-25T12:09:06.995Z,96864.09
2022-09-25T12:10:27.017Z,96856.88
2022-09-25T12:11:45.667Z,96848.44
2022-09-25T12:12:57.711Z,96859.41
2022-09-25T12:14:06.450Z,96858.47
2022-09-25T12:15:09.165Z,96854.00
2022-09-25T12:16:25.595Z,96856.75
2022-09-25T12:17:51.390Z,96846.66
2022-09-25T12:18:55.957Z,96849.41
2022-09-25T12:20:16.368Z,96853.84
2022-09-25T12:21:46.849Z,96847.16
2022-09-25T12:23:29.970Z,96852.63
2022-09-25T12:24:40.158Z,96850.31
2022-09-25T12:26:12.573Z,96848.44
2022-09-25T12:27:42.761Z,96842.91
2022-09-25T12:29:28.398Z,96837.56
2022-09-25T12:30:57.154Z,96842.16
2022-09-25T12:32:28.529Z,96848.41
2022-09-25T12:33:38.809Z,96828.94
2022-09-25T12:34:58.788Z,96835.41
2022-09-25T12:36:11.678Z,96840.97
2022-09-25T12:37:31.947Z,96825.81
2022-09-25T12:38:50.517Z,96830.63
2022-09-25T12:40:03.644Z,96815.38
2022-09-25T12:41:19.151Z,96821.31
2022-09-25T12:42:38.668Z,96823.03
2022-09-25T12:44:12.361Z,96822.97
2022-09-25T12:45:27.286Z,96817.69
2022-09-25T12:46:51.239Z,96815.59
2022-09-25T12:48:20.963Z,96810.75
2022-09-25T12:49:30.165Z,96805.91
2022-09-25T12:50:39.692Z,96794.16
2022-09-25T12:51:45.612Z,96803.13
2022-09-25T12:52:53.114Z,96810.56
2022-09-25T12:54:41.877Z,96808.72
2022-09-25T12:55:53.009Z,96804.78
2022-09-25T12:57:04.175Z,96804.78
2022-09-25T12:58:12.492Z,96817.16
2022-09-25T12:59:29.970Z,96803.94
2022-09-25T13:00:35.889Z,96803.13
2022-09-25T13:02:19.505Z,96804.09
2022-09-25T13:03:28.384Z,96800.13
2022-09-25T13:04:39.894Z,96803.91
2022-09-25T13:05:56.221Z,96803.16
2022-09-25T13:07:23.581Z,96787.94
2022-09-25T13:08:35.324Z,96790.50
2022-09-25T13:09:46.052Z,96792.88
2022-09-25T13:10:59.310Z,96796.09
2022-09-25T13:12:24.832Z,96794.66
2022-09-25T13:13:30.300Z,96791.09
2022-09-25T13:15:16.210Z,96791.31
2022-09-25T13:16:17.821Z,96794.88
2022-09-25T13:17:19.816Z,96785.03
2022-09-25T13:18:24.448Z,96789.91
2022-09-25T13:19:27.518Z,96789.00
2022-09-25T13:20:29.703Z,96789.72